sensor_id;sensor_type;location;lat;lon;timestamp;pressure;altitude;pressure_sealevel;temperature;humidity
24440;BME280;12618;54.386;18.394;2022-09-12T07:03:18;99679.77;;;17.37;81.41
24440;BME280;12618;54.386;18.394;2022-09-12T07:05:49;99680.02;;;17.45;88.79
24440;BME280;12618;54.386;18.394;2022-09-12T07:08:20;99685.70;;;17.65;83.62
24440;BME280;12618;54.386;18.394;2022-09-12T07:10:51;99694.09;;;18.27;83.02
24440;BME280;12618;54.386;18.394;2022-09-12T07:13:21;99689.91;;;19.16;80.55
24440;BME280;12618;54.386;18.394;2022-09-12T07:15:52;99691.67;;;20.41;73.48
24440;BME280;12618;54.386;18.394;2022-09-12T07:18:23;99695.09;;;21.31;76.71
24440;BME280;12618;54.386;18.394;2022-09-12T07:20:54;99696.73;;;22.03;66.85
24440;BME280;12618;54.386;18.394;2022-09-12T07:23:25;99695.75;;;23.00;69.86
24440;BME280;12618;54.386;18.394;2022-09-12T07:25:57;99697.09;;;23.75;61.18
24440;BME280;12618;54.386;18.394;2022-09-12T07:28:30;99696.64;;;24.86;74.60
24440;BME280;12618;54.386;18.394;2022-09-12T07:31:13;99704.89;;;25.63;66.46
24440;BME280;12618;54.386;18.394;2022-09-12T07:33:44;99705.00;;;25.09;63.03
24440;BME280;12618;54.386;18.394;2022-09-12T07:36:16;99708.41;;;23.21;61.23
24440;BME280;12618;54.386;18.394;2022-09-12T07:38:53;99704.80;;;21.94;56.60
24440;BME280;12618;54.386;18.394;2022-09-12T07:41:30;99708.64;;;20.76;60.07
24440;BME280;12618;54.386;18.394;2022-09-12T07:44:02;99712.05;;;20.02;64.82
24440;BME280;12618;54.386;18.394;2022-09-12T07:46:33;99713.08;;;19.27;65.65
24440;BME280;12618;54.386;18.394;2022-09-12T07:49:04;99719.48;;;18.66;63.52
24440;BME280;12618;54.386;18.394;2022-09-12T07:51:35;99720.09;;;18.19;67.03
24440;BME280;12618;54.386;18.394;2022-09-12T07:54:07;99721.05;;;18.52;66.27
24440;BME280;12618;54.386;18.394;2022-09-12T07:56:38;99716.12;;;19.96;64.25
24440;BME280;12618;54.386;18.394;2022-09-12T07:59:10;99724.30;;;21.72;65.30
24440;BME280;12618;54.386;18.394;2022-09-12T08:01:41;99729.53;;;22.81;62.76
24440;BME280;12618;54.386;18.394;2022-09-12T08:04:11;99728.77;;;23.73;57.20
24440;BME280;12618;54.386;18.394;2022-09-12T08:06:42;99726.73;;;24.49;47.50
24440;BME280;12618;54.386;18.394;2022-09-12T08:09:13;99729.36;;;25.37;49.09
24440;BME280;12618;54.386;18.394;2022-09-12T08:11:46;99727.67;;;25.56;50.90
24440;BME280;12618;54.386;18.394;2022-09-12T08:14:18;99723.80;;;25.75;48.45
24440;BME280;12618;54.386;18.394;2022-09-12T08:16:50;99735.45;;;25.51;48.06
24440;BME280;12618;54.386;18.394;2022-09-12T08:19:21;99727.85;;;25.59;43.45
24440;BME280;12618;54.386;18.394;2022-09-12T08:21:52;99735.64;;;25.78;46.81
24440;BME280;12618;54.386;18.394;2022-09-12T08:24:23;99727.45;;;26.35;42.69
24440;BME280;12618;54.386;18.394;2022-09-12T08:26:54;99731.70;;;26.13;41.72
24440;BME280;12618;54.386;18.394;2022-09-12T08:29:25;99731.88;;;26.28;40.78
24440;BME280;12618;54.386;18.394;2022-09-12T08:31:55;99738.34;;;25.78;42.48
24440;BME280;12618;54.386;18.394;2022-09-12T08:34:26;99733.58;;;25.56;44.41
24440;BME280;12618;54.386;18.394;2022-09-12T08:36:57;99728.38;;;24.84;42.23
24440;BME280;12618;54.386;18.394;2022-09-12T08:39:28;99741.19;;;24.44;40.58
24440;BME280;12618;54.386;18.394;2022-09-12T08:42:03;99738.38;;;23.22;43.92
24440;BME280;12618;54.386;18.394;2022-09-12T08:44:49;99744.09;;;22.37;45.70
24440;BME280;12618;54.386;18.394;2022-09-12T08:53:01;99728.82;;;23.81;46.05
24440;BME280;12618;54.386;18.394;2022-09-12T08:55:39;99733.01;;;24.95;44.37
24440;BME280;12618;54.386;18.394;2022-09-12T09:00:52;99735.27;;;25.28;40.91
24440;BME280;12618;54.386;18.394;2022-09-12T09:12:10;99738.98;;;26.29;41.12
24440;BME280;12618;54.386;18.394;2022-09-12T09:14:54;99743.30;;;25.08;39.22
24440;BME280;12618;54.386;18.394;2022-09-12T09:17:28;99742.76;;;24.50;42.29
24440;BME280;12618;54.386;18.394;2022-09-12T09:20:39;99737.97;;;24.14;42.44
24440;BME280;12618;54.386;18.394;2022-09-12T09:23:20;99738.64;;;25.34;42.05
24440;BME280;12618;54.386;18.394;2022-09-12T09:28:45;99744.41;;;26.04;41.73
24440;BME280;12618;54.386;18.394;2022-09-12T09:31:18;99748.52;;;26.56;38.53
24440;BME280;12618;54.386;18.394;2022-09-12T09:33:54;99744.14;;;26.90;36.83
24440;BME280;12618;54.386;18.394;2022-09-12T09:39:24;99739.06;;;27.90;34.03
24440;BME280;12618;54.386;18.394;2022-09-12T09:42:15;99743.94;;;28.72;37.04
24440;BME280;12618;54.386;18.394;2022-09-12T09:44:45;99745.84;;;29.33;33.57
24440;BME280;12618;54.386;18.394;2022-09-12T09:47:18;99738.62;;;29.40;31.63
24440;BME280;12618;54.386;18.394;2022-09-12T09:49:49;99742.45;;;29.10;32.78
24440;BME280;12618;54.386;18.394;2022-09-12T09:52:25;99740.27;;;29.20;32.23
24440;BME280;12618;54.386;18.394;2022-09-12T09:54:59;99738.86;;;29.24;32.74
24440;BME280;12618;54.386;18.394;2022-09-12T10:05:48;99739.07;;;28.28;32.95
24440;BME280;12618;54.386;18.394;2022-09-12T10:08:24;99739.20;;;28.59;31.52
24440;BME280;12618;54.386;18.394;2022-09-12T10:10:57;99743.45;;;28.58;30.69
24440;BME280;12618;54.386;18.394;2022-09-12T10:13:38;99738.48;;;27.61;33.16
24440;BME280;12618;54.386;18.394;2022-09-12T10:16:23;99743.56;;;26.71;33.92
24440;BME280;12618;54.386;18.394;2022-09-12T10:18:57;99741.36;;;26.71;33.94
24440;BME280;12618;54.386;18.394;2022-09-12T10:21:46;99735.67;;;27.24;34.04
24440;BME280;12618;54.386;18.394;2022-09-12T10:24:20;99734.11;;;27.75;31.66
24440;BME280;12618;54.386;18.394;2022-09-12T10:27:04;99738.77;;;28.22;32.12
24440;BME280;12618;54.386;18.394;2022-09-12T10:29:33;99740.27;;;28.25;31.73
24440;BME280;12618;54.386;18.394;2022-09-12T10:32:03;99735.97;;;28.60;31.35
24440;BME280;12618;54.386;18.394;2022-09-12T10:34:38;99729.84;;;28.73;31.25
24440;BME280;12618;54.386;18.394;2022-09-12T10:37:21;99735.33;;;27.91;30.32
24440;BME280;12618;54.386;18.394;2022-09-12T10:39:57;99735.03;;;27.40;31.54
24440;BME280;12618;54.386;18.394;2022-09-12T10:45:31;99720.44;;;27.87;32.42
24440;BME280;12618;54.386;18.394;2022-09-12T10:50:51;99724.32;;;28.26;31.99
24440;BME280;12618;54.386;18.394;2022-09-12T10:53:24;99724.53;;;28.20;30.55
24440;BME280;12618;54.386;18.394;2022-09-12T11:16:23;99731.91;;;25.63;33.60
24440;BME280;12618;54.386;18.394;2022-09-12T11:19:17;99725.48;;;25.88;33.40
24440;BME280;12618;54.386;18.394;2022-09-12T11:29:48;99718.52;;;26.69;32.79
24440;BME280;12618;54.386;18.394;2022-09-12T11:35:31;99716.70;;;25.90;33.15
24440;BME280;12618;54.386;18.394;2022-09-12T11:41:06;99723.80;;;25.75;32.50
24440;BME280;12618;54.386;18.394;2022-09-12T11:46:39;99726.84;;;25.39;33.46
24440;BME280;12618;54.386;18.394;2022-09-12T11:52:24;99721.08;;;25.18;33.95
24440;BME280;12618;54.386;18.394;2022-09-12T11:55:01;99717.99;;;25.09;33.70
24440;BME280;12618;54.386;18.394;2022-09-12T11:57:47;99724.27;;;25.22;33.63
24440;BME280;12618;54.386;18.394;2022-09-12T12:00:32;99724.80;;;25.29;33.95
24440;BME280;12618;54.386;18.394;2022-09-12T12:03:17;99720.75;;;25.29;33.15
24440;BME280;12618;54.386;18.394;2022-09-12T12:08:31;99731.38;;;24.77;33.72
24440;BME280;12618;54.386;18.394;2022-09-12T12:11:04;99732.63;;;24.48;35.17
24440;BME280;12618;54.386;18.394;2022-09-12T12:13:50;99727.67;;;24.78;34.66
24440;BME280;12618;54.386;18.394;2022-09-12T12:18:59;99723.42;;;24.67;35.14
24440;BME280;12618;54.386;18.394;2022-09-12T12:21:39;99731.03;;;24.76;34.91
24440;BME280;12618;54.386;18.394;2022-09-12T12:34:40;99727.14;;;25.16;34.53
24440;BME280;12618;54.386;18.394;2022-09-12T12:40:17;99723.53;;;24.49;34.24
24440;BME280;12618;54.386;18.394;2022-09-12T12:48:08;99732.66;;;24.56;35.84
24440;BME280;12618;54.386;18.394;2022-09-12T12:50:42;99737.28;;;24.72;35.27
24440;BME280;12618;54.386;18.394;2022-09-12T12:53:27;99738.42;;;24.61;35.81
24440;BME280;12618;54.386;18.394;2022-09-12T12:55:56;99730.55;;;24.42;35.51
24440;BME280;12618;54.386;18.394;2022-09-12T12:58:32;99732.19;;;24.27;34.88
24440;BME280;12618;54.386;18.394;2022-09-12T13:01:18;99725.49;;;24.13;35.75
24440;BME280;12618;54.386;18.394;2022-09-12T13:04:04;99728.52;;;23.84;36.46
24440;BME280;12618;54.386;18.394;2022-09-12T13:06:54;99730.88;;;23.87;36.61
24440;BME280;12618;54.386;18.394;2022-09-12T13:12:21;99728.02;;;23.63;35.92
24440;BME280;12618;54.386;18.394;2022-09-12T13:14:51;99735.85;;;23.39;36.94
24440;BME280;12618;54.386;18.394;2022-09-12T13:17:37;99724.84;;;23.14;37.66
24440;BME280;12618;54.386;18.394;2022-09-12T13:20:18;99730.23;;;23.14;37.26
24440;BME280;12618;54.386;18.394;2022-09-12T13:22:51;99725.69;;;22.97;37.42
24440;BME280;12618;54.386;18.394;2022-09-12T13:25:33;99728.50;;;22.68;37.57
24440;BME280;12618;54.386;18.394;2022-09-12T13:33:34;99718.09;;;22.05;38.96
24440;BME280;12618;54.386;18.394;2022-09-12T13:45:20;99715.56;;;21.51;40.50
24440;BME280;12618;54.386;18.394;2022-09-12T13:48:05;99715.58;;;21.41;39.56
24440;BME280;12618;54.386;18.394;2022-09-12T13:50:40;99719.66;;;21.36;39.96
24440;BME280;12618;54.386;18.394;2022-09-12T13:56:07;99721.71;;;21.38;40.14
24440;BME280;12618;54.386;18.394;2022-09-12T13:58:37;99723.06;;;21.28;41.46
24440;BME280;12618;54.386;18.394;2022-09-12T14:01:14;99718.64;;;21.08;42.15
24440;BME280;12618;54.386;18.394;2022-09-12T14:03:56;99718.33;;;21.01;41.72
24440;BME280;12618;54.386;18.394;2022-09-12T14:06:50;99719.89;;;20.94;41.28
24440;BME280;12618;54.386;18.394;2022-09-12T14:09:29;99712.83;;;21.03;42.12
24440;BME280;12618;54.386;18.394;2022-09-12T14:12:04;99714.75;;;21.06;42.51
24440;BME280;12618;54.386;18.394;2022-09-12T14:14:39;99712.83;;;21.03;41.87
24440;BME280;12618;54.386;18.394;2022-09-12T14:17:17;99714.31;;;21.01;41.81
24440;BME280;12618;54.386;18.394;2022-09-12T14:19:51;99712.97;;;21.01;42.21
24440;BME280;12618;54.386;18.394;2022-09-12T14:22:38;99711.13;;;20.92;43.67
24440;BME280;12618;54.386;18.394;2022-09-12T14:25:20;99723.47;;;20.89;42.28
24440;BME280;12618;54.386;18.394;2022-09-12T14:27:54;99716.34;;;20.84;42.41
24440;BME280;12618;54.386;18.394;2022-09-12T14:30:28;99722.19;;;20.74;42.20
24440;BME280;12618;54.386;18.394;2022-09-12T14:35:51;99720.59;;;20.62;43.42
24440;BME280;12618;54.386;18.394;2022-09-12T14:38:30;99712.40;;;20.54;43.65
24440;BME280;12618;54.386;18.394;2022-09-12T14:41:00;99716.74;;;20.55;43.49
24440;BME280;12618;54.386;18.394;2022-09-12T14:43:51;99718.28;;;20.48;44.67
24440;BME280;12618;54.386;18.394;2022-09-12T14:46:36;99710.83;;;20.36;44.81
24440;BME280;12618;54.386;18.394;2022-09-12T14:52:03;99712.66;;;20.51;45.95
24440;BME280;12618;54.386;18.394;2022-09-12T14:54:34;99715.30;;;20.66;46.72
24440;BME280;12618;54.386;18.394;2022-09-12T14:57:54;99714.05;;;20.70;46.96
24440;BME280;12618;54.386;18.394;2022-09-12T14:59:43;99713.52;;;20.76;46.89
24440;BME280;12618;54.386;18.394;2022-09-12T15:02:23;99716.82;;;20.74;46.18
24440;BME280;12618;54.386;18.394;2022-09-12T15:07:50;99723.12;;;20.54;46.57
24440;BME280;12618;54.386;18.394;2022-09-12T15:10:30;99721.48;;;20.26;47.41
24440;BME280;12618;54.386;18.394;2022-09-12T15:13:16;99731.58;;;20.13;48.65
24440;BME280;12618;54.386;18.394;2022-09-12T15:15:54;99727.56;;;19.98;48.57
24440;BME280;12618;54.386;18.394;2022-09-12T15:18:24;99728.88;;;19.83;48.65
24440;BME280;12618;54.386;18.394;2022-09-12T15:20:59;99721.45;;;19.66;49.14
24440;BME280;12618;54.386;18.394;2022-09-12T15:26:14;99722.52;;;19.42;52.67
24440;BME280;12618;54.386;18.394;2022-09-12T15:28:45;99724.03;;;19.24;50.54
24440;BME280;12618;54.386;18.394;2022-09-12T15:31:23;99731.80;;;18.95;52.23
24440;BME280;12618;54.386;18.394;2022-09-12T15:33:58;99724.66;;;18.79;50.98
24440;BME280;12618;54.386;18.394;2022-09-12T15:36:32;99734.43;;;18.63;51.10
24440;BME280;12618;54.386;18.394;2022-09-12T15:39:03;99732.22;;;18.51;52.96
24440;BME280;12618;54.386;18.394;2022-09-12T15:41:35;99727.73;;;18.41;52.25
24440;BME280;12618;54.386;18.394;2022-09-12T15:44:10;99738.20;;;18.33;53.83
24440;BME280;12618;54.386;18.394;2022-09-12T15:46:41;99729.17;;;18.23;55.40
24440;BME280;12618;54.386;18.394;2022-09-12T15:49:12;99739.88;;;18.17;53.40
24440;BME280;12618;54.386;18.394;2022-09-12T15:51:48;99726.25;;;17.92;55.44
24440;BME280;12618;54.386;18.394;2022-09-12T15:54:24;99726.25;;;17.92;55.44
24440;BME280;12618;54.386;18.394;2022-09-12T15:56:55;99730.50;;;17.78;60.54
24440;BME280;12618;54.386;18.394;2022-09-12T15:59:26;99730.95;;;17.72;55.24
24440;BME280;12618;54.386;18.394;2022-09-12T16:01:56;99729.63;;;17.72;57.59
24440;BME280;12618;54.386;18.394;2022-09-12T16:04:31;99728.66;;;17.73;59.97
24440;BME280;12618;54.386;18.394;2022-09-12T16:07:02;99722.58;;;17.65;58.86
24440;BME280;12618;54.386;18.394;2022-09-12T16:09:33;99726.04;;;17.55;64.59
24440;BME280;12618;54.386;18.394;2022-09-12T16:12:04;99728.41;;;17.46;63.02
24440;BME280;12618;54.386;18.394;2022-09-12T16:14:35;99726.82;;;17.38;62.33
24440;BME280;12618;54.386;18.394;2022-09-12T16:17:06;99709.66;;;17.24;60.50
24440;BME280;12618;54.386;18.394;2022-09-12T16:19:38;99722.67;;;17.34;61.04
24440;BME280;12618;54.386;18.394;2022-09-12T16:22:08;99730.81;;;17.33;62.56
24440;BME280;12618;54.386;18.394;2022-09-12T16:24:40;99728.86;;;17.29;62.85
24440;BME280;12618;54.386;18.394;2022-09-12T16:27:10;99724.22;;;17.20;64.30
24440;BME280;12618;54.386;18.394;2022-09-12T16:29:42;99725.88;;;17.10;66.83
24440;BME280;12618;54.386;18.394;2022-09-12T16:32:13;99719.37;;;17.01;63.67
24440;BME280;12618;54.386;18.394;2022-09-12T16:34:45;99718.78;;;16.98;65.04
24440;BME280;12618;54.386;18.394;2022-09-12T16:37:17;99715.47;;;16.89;64.97
24440;BME280;12618;54.386;18.394;2022-09-12T16:39:50;99715.47;;;16.89;64.97
24440;BME280;12618;54.386;18.394;2022-09-12T16:42:21;99712.31;;;16.89;65.46
24440;BME280;12618;54.386;18.394;2022-09-12T16:44:52;99709.02;;;16.86;65.37
24440;BME280;12618;54.386;18.394;2022-09-12T16:47:23;99713.45;;;16.80;66.38
24440;BME280;12618;54.386;18.394;2022-09-12T16:49:54;99716.80;;;16.70;69.16
24440;BME280;12618;54.386;18.394;2022-09-12T16:52:25;99708.11;;;16.61;66.88
24440;BME280;12618;54.386;18.394;2022-09-12T16:54:55;99709.90;;;16.55;65.47
24440;BME280;12618;54.386;18.394;2022-09-12T16:57:27;99699.30;;;16.48;67.24
24440;BME280;12618;54.386;18.394;2022-09-12T16:59:57;99698.92;;;16.47;67.72
24440;BME280;12618;54.386;18.394;2022-09-12T17:02:28;99694.05;;;16.41;70.49
24440;BME280;12618;54.386;18.394;2022-09-12T17:04:59;99702.47;;;16.35;71.71
24440;BME280;12618;54.386;18.394;2022-09-12T17:07:30;99703.61;;;16.25;70.79
24440;BME280;12618;54.386;18.394;2022-09-12T17:10:00;99704.75;;;16.16;71.56
24440;BME280;12618;54.386;18.394;2022-09-12T17:12:31;99698.74;;;16.07;71.78
24440;BME280;12618;54.386;18.394;2022-09-12T17:15:02;99695.78;;;15.98;70.91
24440;BME280;12618;54.386;18.394;2022-09-12T17:17:33;99698.00;;;15.92;74.33
24440;BME280;12618;54.386;18.394;2022-09-12T17:20:04;99699.50;;;15.83;74.28
24440;BME280;12618;54.386;18.394;2022-09-12T17:22:35;99700.14;;;15.74;72.62
24440;BME280;12618;54.386;18.394;2022-09-12T17:25:06;99700.41;;;15.64;77.79
24440;BME280;12618;54.386;18.394;2022-09-12T17:27:37;99698.38;;;15.55;71.90
24440;BME280;12618;54.386;18.394;2022-09-12T17:30:08;99704.07;;;15.49;73.24
24440;BME280;12618;54.386;18.394;2022-09-12T17:32:39;99703.83;;;15.46;74.80
24440;BME280;12618;54.386;18.394;2022-09-12T17:35:10;99703.00;;;15.39;77.33
24440;BME280;12618;54.386;18.394;2022-09-12T17:37:41;99695.45;;;15.33;76.09
24440;BME280;12618;54.386;18.394;2022-09-12T17:40:12;99698.30;;;15.29;77.50
24440;BME280;12618;54.386;18.394;2022-09-12T17:42:43;99703.44;;;15.25;76.15
24440;BME280;12618;54.386;18.394;2022-09-12T17:45:15;99704.52;;;15.23;74.74
24440;BME280;12618;54.386;18.394;2022-09-12T17:47:45;99699.08;;;15.24;76.17
24440;BME280;12618;54.386;18.394;2022-09-12T17:50:16;99701.73;;;15.24;76.99
24440;BME280;12618;54.386;18.394;2022-09-12T17:52:47;99701.21;;;15.19;75.83
24440;BME280;12618;54.386;18.394;2022-09-12T17:55:18;99704.06;;;15.16;77.93
24440;BME280;12618;54.386;18.394;2022-09-12T17:57:48;99704.48;;;15.10;76.72
24440;BME280;12618;54.386;18.394;2022-09-12T18:00:19;99705.35;;;15.04;79.77
24440;BME280;12618;54.386;18.394;2022-09-12T18:02:52;99706.15;;;14.99;78.79
24440;BME280;12618;54.386;18.394;2022-09-12T18:05:23;99702.73;;;14.97;78.32
24440;BME280;12618;54.386;18.394;2022-09-12T18:07:54;99701.70;;;14.92;77.84
24440;BME280;12618;54.386;18.394;2022-09-12T18:10:24;99704.30;;;14.86;78.93
24440;BME280;12618;54.386;18.394;2022-09-12T18:12:55;99700.88;;;14.84;79.83
24440;BME280;12618;54.386;18.394;2022-09-12T18:15:27;99698.41;;;14.81;80.40
24440;BME280;12618;54.386;18.394;2022-09-12T18:17:58;99703.25;;;14.82;80.83
24440;BME280;12618;54.386;18.394;2022-09-12T18:20:28;99703.63;;;14.83;80.97
24440;BME280;12618;54.386;18.394;2022-09-12T18:22:59;99702.49;;;14.87;80.68
24440;BME280;12618;54.386;18.394;2022-09-12T18:25:30;99694.71;;;14.84;80.49
24440;BME280;12618;54.386;18.394;2022-09-12T18:28:01;99692.25;;;14.81;80.27
24440;BME280;12618;54.386;18.394;2022-09-12T18:30:32;99695.13;;;14.78;80.18
24440;BME280;12618;54.386;18.394;2022-09-12T18:33:03;99694.66;;;14.78;81.28
24440;BME280;12618;54.386;18.394;2022-09-12T18:35:36;99690.77;;;14.77;80.63
24440;BME280;12618;54.386;18.394;2022-09-12T18:38:07;99695.41;;;14.73;80.29
24440;BME280;12618;54.386;18.394;2022-09-12T18:40:38;99691.56;;;14.65;79.23
24440;BME280;12618;54.386;18.394;2022-09-12T18:43:09;99695.00;;;14.52;79.90
24440;BME280;12618;54.386;18.394;2022-09-12T18:45:40;99689.42;;;14.36;81.96
24440;BME280;12618;54.386;18.394;2022-09-12T18:48:10;99690.27;;;14.29;82.14
24440;BME280;12618;54.386;18.394;2022-09-12T18:50:41;99699.36;;;14.25;82.58
24440;BME280;12618;54.386;18.394;2022-09-12T18:53:12;99699.77;;;14.19;82.66
24440;BME280;12618;54.386;18.394;2022-09-12T18:55:44;99698.36;;;14.13;83.28
24440;BME280;12618;54.386;18.394;2022-09-12T18:58:14;99702.52;;;14.17;83.03
24440;BME280;12618;54.386;18.394;2022-09-12T19:00:45;99709.73;;;14.23;83.50
24440;BME280;12618;54.386;18.394;2022-09-12T19:03:17;99703.84;;;14.17;82.90
24440;BME280;12618;54.386;18.394;2022-09-12T19:05:48;99697.88;;;14.07;82.32
24440;BME280;12618;54.386;18.394;2022-09-12T19:08:19;99692.38;;;13.96;81.96
24440;BME280;12618;54.386;18.394;2022-09-12T19:10:54;99690.13;;;13.90;84.35
24440;BME280;12618;54.386;18.394;2022-09-12T19:13:25;99688.41;;;13.89;85.26
24440;BME280;12618;54.386;18.394;2022-09-12T19:15:56;99686.70;;;13.88;86.24
24440;BME280;12618;54.386;18.394;2022-09-12T19:18:27;99677.60;;;13.84;85.90
24440;BME280;12618;54.386;18.394;2022-09-12T19:20:58;99672.48;;;13.81;85.28
24440;BME280;12618;54.386;18.394;2022-09-12T19:23:31;99671.36;;;13.78;85.97
24440;BME280;12618;54.386;18.394;2022-09-12T19:26:06;99676.67;;;13.78;85.97
24440;BME280;12618;54.386;18.394;2022-09-12T19:28:37;99676.28;;;13.77;85.44
24440;BME280;12618;54.386;18.394;2022-09-12T19:31:10;99671.55;;;13.68;87.24
24440;BME280;12618;54.386;18.394;2022-09-12T19:33:41;99670.02;;;13.71;86.17
24440;BME280;12618;54.386;18.394;2022-09-12T19:36:15;99668.89;;;13.75;86.04
24440;BME280;12618;54.386;18.394;2022-09-12T19:38:47;99671.25;;;13.73;85.31
24440;BME280;12618;54.386;18.394;2022-09-12T19:41:18;99668.51;;;13.74;85.25
24440;BME280;12618;54.386;18.394;2022-09-12T19:43:49;99662.05;;;13.71;84.25
24440;BME280;12618;54.386;18.394;2022-09-12T19:46:21;99661.12;;;13.58;83.77
24440;BME280;12618;54.386;18.394;2022-09-12T19:48:52;99655.80;;;13.51;83.85
24440;BME280;12618;54.386;18.394;2022-09-12T19:51:23;99662.39;;;13.37;83.81
24440;BME280;12618;54.386;18.394;2022-09-12T19:53:55;99665.42;;;13.24;86.11
24440;BME280;12618;54.386;18.394;2022-09-12T19:56:26;99666.36;;;13.23;86.56
24440;BME280;12618;54.386;18.394;2022-09-12T19:58:58;99661.06;;;13.23;87.14
24440;BME280;12618;54.386;18.394;2022-09-12T20:01:29;99665.80;;;13.25;86.36
24440;BME280;12618;54.386;18.394;2022-09-12T20:04:01;99668.07;;;13.24;86.15
24440;BME280;12618;54.386;18.394;2022-09-12T20:06:32;99651.41;;;13.22;86.55
24440;BME280;12618;54.386;18.394;2022-09-12T20:09:04;99650.81;;;13.17;86.63
24440;BME280;12618;54.386;18.394;2022-09-12T20:11:34;99641.92;;;13.18;86.35
24440;BME280;12618;54.386;18.394;2022-09-12T20:14:05;99641.75;;;13.21;86.86
24440;BME280;12618;54.386;18.394;2022-09-12T20:16:37;99640.59;;;13.18;86.56
24440;BME280;12618;54.386;18.394;2022-09-12T20:19:08;99639.65;;;13.19;87.15
24440;BME280;12618;54.386;18.394;2022-09-12T20:21:39;99642.13;;;13.22;86.11
24440;BME280;12618;54.386;18.394;2022-09-12T20:24:11;99633.03;;;13.19;87.37
24440;BME280;12618;54.386;18.394;2022-09-12T20:26:43;99630.84;;;13.18;88.25
24440;BME280;12618;54.386;18.394;2022-09-12T20:29:14;99630.72;;;13.12;88.43
24440;BME280;12618;54.386;18.394;2022-09-12T20:31:44;99633.16;;;13.08;90.01
24440;BME280;12618;54.386;18.394;2022-09-12T20:34:18;99636.75;;;13.07;90.09
24440;BME280;12618;54.386;18.394;2022-09-12T20:36:49;99630.59;;;13.07;91.04
24440;BME280;12618;54.386;18.394;2022-09-12T20:39:21;99634.28;;;13.04;89.96
24440;BME280;12618;54.386;18.394;2022-09-12T20:41:52;99632.39;;;13.06;91.11
24440;BME280;12618;54.386;18.394;2022-09-12T20:44:23;99632.61;;;13.10;91.29
24440;BME280;12618;54.386;18.394;2022-09-12T20:46:54;99633.55;;;13.09;91.20
24440;BME280;12618;54.386;18.394;2022-09-12T20:49:25;99631.45;;;13.07;91.11
24440;BME280;12618;54.386;18.394;2022-09-12T20:51:55;99632.02;;;13.05;90.90
24440;BME280;12618;54.386;18.394;2022-09-12T20:54:26;99632.48;;;13.05;90.79
24440;BME280;12618;54.386;18.394;2022-09-12T20:56:57;99626.53;;;13.01;92.41
24440;BME280;12618;54.386;18.394;2022-09-12T20:59:27;99624.44;;;12.99;92.68
24440;BME280;12618;54.386;18.394;2022-09-12T21:01:58;99621.79;;;12.99;90.42
24440;BME280;12618;54.386;18.394;2022-09-12T21:04:29;99622.56;;;13.01;92.49
24440;BME280;12618;54.386;18.394;2022-09-12T21:07:03;99620.94;;;12.99;92.97
24440;BME280;12618;54.386;18.394;2022-09-12T21:09:34;99621.66;;;12.94;93.80
24440;BME280;12618;54.386;18.394;2022-09-12T21:12:04;99621.56;;;12.88;93.10
24440;BME280;12618;54.386;18.394;2022-09-12T21:14:35;99615.89;;;12.87;93.85
24440;BME280;12618;54.386;18.394;2022-09-12T21:17:06;99615.89;;;12.87;92.72
24440;BME280;12618;54.386;18.394;2022-09-12T21:19:37;99607.00;;;12.88;93.17
24440;BME280;12618;54.386;18.394;2022-09-12T21:22:08;99620.34;;;12.94;93.51
24440;BME280;12618;54.386;18.394;2022-09-12T21:24:41;99606.06;;;12.89;92.15
24440;BME280;12618;54.386;18.394;2022-09-12T21:27:12;99608.58;;;12.84;92.15
24440;BME280;12618;54.386;18.394;2022-09-12T21:29:42;99603.02;;;12.81;93.35
24440;BME280;12618;54.386;18.394;2022-09-12T21:32:13;99601.56;;;12.75;93.49
24440;BME280;12618;54.386;18.394;2022-09-12T21:34:44;99595.67;;;12.70;94.03
24440;BME280;12618;54.386;18.394;2022-09-12T21:37:15;99594.47;;;12.69;94.28
24440;BME280;12618;54.386;18.394;2022-09-12T21:39:46;99595.36;;;12.61;94.13
24440;BME280;12618;54.386;18.394;2022-09-12T21:42:17;99591.37;;;12.54;94.27
24440;BME280;12618;54.386;18.394;2022-09-12T21:44:48;99585.77;;;12.51;94.42
24440;BME280;12618;54.386;18.394;2022-09-12T21:47:19;99574.70;;;12.45;94.58
24440;BME280;12618;54.386;18.394;2022-09-12T21:49:49;99579.22;;;12.43;94.88
24440;BME280;12618;54.386;18.394;2022-09-12T21:52:20;99568.42;;;12.38;96.14
24440;BME280;12618;54.386;18.394;2022-09-12T21:54:51;99569.17;;;12.33;94.10
24440;BME280;12618;54.386;18.394;2022-09-12T21:57:22;99569.72;;;12.31;95.36
24440;BME280;12618;54.386;18.394;2022-09-12T21:59:53;99574.16;;;12.31;95.35
24440;BME280;12618;54.386;18.394;2022-09-12T22:02:24;99576.59;;;12.27;95.06
24440;BME280;12618;54.386;18.394;2022-09-12T22:04:57;99571.88;;;12.25;94.69
24440;BME280;12618;54.386;18.394;2022-09-12T22:07:27;99574.41;;;12.26;94.61
24440;BME280;12618;54.386;18.394;2022-09-12T22:09:59;99575.09;;;12.30;93.28
24440;BME280;12618;54.386;18.394;2022-09-12T22:12:31;99582.41;;;12.18;92.78
24440;BME280;12618;54.386;18.394;2022-09-12T22:15:02;99586.12;;;12.07;92.81
24440;BME280;12618;54.386;18.394;2022-09-12T22:17:36;99583.53;;;11.98;94.83
24440;BME280;12618;54.386;18.394;2022-09-12T22:20:07;99590.49;;;11.92;95.35
24440;BME280;12618;54.386;18.394;2022-09-12T22:22:39;99592.91;;;11.88;96.56
24440;BME280;12618;54.386;18.394;2022-09-12T22:25:29;99591.55;;;11.81;96.52
24440;BME280;12618;54.386;18.394;2022-09-12T22:28:00;99590.08;;;11.75;96.70
24440;BME280;12618;54.386;18.394;2022-09-12T22:30:31;99596.42;;;11.71;97.20
24440;BME280;12618;54.386;18.394;2022-09-12T22:33:02;99591.02;;;11.65;98.40
24440;BME280;12618;54.386;18.394;2022-09-12T22:35:32;99586.35;;;11.62;97.55
24440;BME280;12618;54.386;18.394;2022-09-12T22:38:03;99578.73;;;11.64;100.00